createdAt,value
2018-12-11T00:01:29.113Z,2.93
2018-12-11T00:04:03.912Z,2.30
2018-12-11T00:06:37.600Z,2.33
2018-12-11T00:09:14.212Z,2.07
2018-12-11T00:11:48.061Z,2.00
2018-12-11T00:14:18.884Z,2.00
2018-12-11T00:16:48.606Z,2.53
2018-12-11T00:19:20.463Z,2.10
2018-12-11T00:21:57.056Z,1.53
2018-12-11T00:24:31.053Z,2.30
2018-12-11T00:27:06.926Z,2.27
2018-12-11T00:29:38.075Z,2.43
2018-12-11T00:32:15.449Z,2.13
2018-12-11T00:34:45.972Z,2.43
2018-12-11T00:37:16.807Z,2.70
2018-12-11T00:39:48.106Z,2.40
2018-12-11T00:42:23.757Z,2.27
2018-12-11T00:45:05.363Z,2.47
2018-12-11T00:47:34.967Z,2.33
2018-12-11T00:50:05.134Z,3.10
2018-12-11T00:52:36.374Z,2.73
2018-12-11T00:55:07.313Z,2.53
2018-12-11T00:57:38.060Z,2.60
2018-12-11T01:00:09.941Z,2.73
2018-12-11T01:02:49.768Z,2.50
2018-12-11T01:05:19.631Z,3.37
2018-12-11T01:07:47.183Z,2.33
2018-12-11T01:10:16.987Z,2.40
2018-12-11T01:12:50.205Z,2.20
2018-12-11T01:15:20.776Z,2.40
2018-12-11T01:17:50.854Z,2.17
2018-12-11T01:20:20.438Z,2.20
2018-12-11T01:22:55.932Z,2.40
2018-12-11T01:25:26.127Z,2.30
2018-12-11T01:27:55.885Z,1.77
2018-12-11T01:30:25.607Z,2.07
2018-12-11T01:33:12.746Z,2.60
2018-12-11T01:35:42.329Z,2.20
2018-12-11T01:38:11.771Z,2.30
2018-12-11T01:40:41.257Z,2.07
2018-12-11T01:43:15.539Z,2.00
2018-12-11T01:45:46.370Z,1.90
2018-12-11T01:48:18.853Z,2.30
2018-12-11T01:50:55.641Z,2.30
2018-12-11T01:53:35.555Z,1.90
2018-12-11T01:56:05.467Z,1.83
2018-12-11T01:58:35.415Z,1.90
2018-12-11T02:01:04.992Z,1.77
2018-12-11T02:03:39.187Z,2.17
2018-12-11T02:06:08.629Z,2.27
2018-12-11T02:08:38.078Z,2.27
2018-12-11T02:11:08.027Z,2.13
2018-12-11T02:13:41.677Z,1.73
2018-12-11T02:16:12.005Z,2.03
2018-12-11T02:18:43.147Z,1.93
2018-12-11T02:21:13.119Z,2.70
2018-12-11T02:23:44.982Z,2.03
2018-12-11T02:26:15.085Z,2.13
2018-12-11T02:28:44.519Z,2.40
2018-12-11T02:31:14.152Z,2.43
2018-12-11T02:33:49.836Z,2.27
2018-12-11T02:36:19.370Z,2.80
2018-12-11T02:38:48.878Z,2.13
2018-12-11T02:41:19.978Z,2.17
2018-12-11T02:43:56.560Z,2.20
2018-12-11T02:46:27.368Z,2.20
2018-12-11T02:48:57.073Z,2.00
2018-12-11T02:51:29.970Z,2.50
2018-12-11T02:54:02.981Z,2.40
2018-12-11T02:56:32.430Z,2.27
2018-12-11T02:59:01.953Z,3.00
2018-12-11T03:01:31.465Z,2.30
2018-12-11T03:04:04.481Z,2.97
2018-12-11T03:06:34.069Z,2.43
2018-12-11T03:09:06.891Z,2.50
2018-12-11T03:11:36.813Z,2.10
2018-12-11T03:14:06.531Z,2.30
2018-12-11T03:16:36.971Z,2.93
2018-12-11T03:19:09.807Z,2.60
2018-12-11T03:21:40.608Z,2.40
2018-12-11T03:24:10.128Z,2.30
2018-12-11T03:26:39.878Z,2.80
2018-12-11T03:29:13.478Z,2.80
2018-12-11T03:31:43.296Z,2.53
2018-12-11T03:34:13.070Z,2.47
2018-12-11T03:36:42.533Z,2.63
2018-12-11T03:39:12.960Z,2.40
2018-12-11T03:41:48.633Z,2.80
2018-12-11T03:44:19.342Z,2.83
2018-12-11T03:46:48.872Z,3.10
2018-12-11T03:49:24.825Z,2.87
2018-12-11T03:51:58.162Z,2.63
2018-12-11T03:54:28.006Z,2.50
2018-12-11T03:56:57.748Z,3.00
2018-12-11T03:59:30.741Z,2.93
2018-12-11T04:02:06.733Z,2.73
2018-12-11T04:04:36.283Z,2.80
2018-12-11T04:07:05.687Z,2.43
2018-12-11T04:09:35.413Z,2.87
2018-12-11T04:12:09.001Z,3.20
2018-12-11T04:14:38.867Z,3.00
2018-12-11T04:17:08.393Z,3.47
2018-12-11T04:19:37.957Z,3.30
2018-12-11T04:22:11.210Z,3.57
2018-12-11T04:24:41.126Z,3.30
2018-12-11T04:27:10.768Z,3.37
2018-12-11T04:29:40.384Z,3.93
2018-12-11T04:32:18.037Z,4.00
2018-12-11T04:34:47.698Z,3.30
2018-12-11T04:37:17.481Z,3.30
2018-12-11T04:39:47.521Z,3.77
2018-12-11T04:42:20.763Z,3.80
2018-12-11T04:44:53.445Z,3.07
2018-12-11T04:47:23.915Z,3.00
2018-12-11T04:49:53.518Z,3.93
2018-12-11T04:52:30.240Z,3.10
2018-12-11T04:54:59.886Z,3.10
2018-12-11T04:57:29.648Z,3.33
2018-12-11T05:00:02.264Z,3.47
2018-12-11T05:02:35.830Z,2.97
2018-12-11T05:05:06.668Z,3.40
2018-12-11T05:07:36.713Z,3.33
2018-12-11T05:10:08.572Z,3.40
2018-12-11T05:12:41.732Z,3.33
2018-12-11T05:15:11.892Z,3.40
2018-12-11T05:17:42.313Z,3.77
2018-12-11T05:20:12.293Z,3.53
2018-12-11T05:22:48.138Z,2.93
2018-12-11T05:25:17.959Z,3.10
2018-12-11T05:27:47.729Z,3.23
2018-12-11T05:30:18.659Z,3.80
2018-12-11T05:32:53.886Z,3.60
2018-12-11T05:35:24.295Z,3.70
2018-12-11T05:37:54.479Z,3.43
2018-12-11T05:40:24.831Z,3.23
2018-12-11T05:42:55.982Z,3.20
2018-12-11T05:45:28.404Z,4.47
2018-12-11T05:47:58.287Z,3.37
2018-12-11T05:50:32.409Z,3.03
2018-12-11T05:53:13.815Z,3.80
2018-12-11T05:55:43.440Z,4.00
2018-12-11T05:58:13.019Z,4.30
2018-12-11T06:00:42.579Z,3.40
2018-12-11T06:03:16.087Z,3.40
2018-12-11T06:05:45.728Z,3.57
2018-12-11T06:08:16.056Z,3.60
2018-12-11T06:10:47.026Z,3.53
2018-12-11T06:13:23.061Z,3.40
2018-12-11T06:15:52.679Z,3.87
2018-12-11T06:18:23.324Z,2.83
2018-12-11T06:20:52.878Z,3.60
2018-12-11T06:23:32.403Z,3.73
2018-12-11T06:26:02.800Z,3.33
2018-12-11T06:28:32.331Z,3.80
2018-12-11T06:31:01.922Z,2.83
2018-12-11T06:33:38.636Z,3.83
2018-12-11T06:36:08.599Z,2.70
2018-12-11T06:38:51.866Z,3.63
2018-12-11T06:41:38.163Z,3.13
2018-12-11T06:44:13.203Z,3.20
2018-12-11T06:46:49.565Z,4.03
2018-12-11T06:49:19.458Z,3.47
2018-12-11T06:51:54.486Z,3.23
2018-12-11T06:54:24.237Z,3.30
2018-12-11T06:56:53.976Z,3.87
2018-12-11T06:59:25.323Z,3.23
2018-12-11T07:02:01.563Z,3.57
2018-12-11T07:04:31.666Z,3.33
2018-12-11T07:07:01.179Z,2.90
2018-12-11T07:09:35.892Z,3.77
2018-12-11T07:12:07.117Z,3.53
2018-12-11T07:14:36.608Z,3.57
2018-12-11T07:17:06.443Z,3.20
2018-12-11T07:19:42.787Z,3.47
2018-12-11T07:22:23.173Z,3.50
2018-12-11T07:24:55.802Z,3.50
2018-12-11T07:27:26.392Z,3.37
2018-12-11T07:29:55.935Z,3.47
2018-12-11T07:32:30.530Z,2.83
2018-12-11T07:35:00.134Z,3.23
2018-12-11T07:37:30.122Z,3.20
2018-12-11T07:40:00.913Z,3.07
2018-12-11T07:42:35.123Z,3.30
2018-12-11T07:45:05.414Z,3.37
2018-12-11T07:47:35.179Z,3.50
2018-12-11T07:50:05.378Z,3.63
2018-12-11T07:52:38.284Z,3.60
2018-12-11T07:55:08.005Z,3.53
2018-12-11T07:57:46.898Z,3.70
2018-12-11T08:00:16.635Z,3.60
2018-12-11T08:02:49.405Z,3.47
2018-12-11T08:05:19.827Z,3.33
2018-12-11T08:07:51.981Z,2.90
2018-12-11T08:10:21.668Z,3.10
2018-12-11T08:12:57.537Z,3.13
2018-12-11T08:15:27.017Z,3.00
2018-12-11T08:17:56.870Z,2.80
2018-12-11T08:20:26.639Z,3.10
2018-12-11T08:22:59.568Z,3.37
2018-12-11T08:25:28.957Z,3.27
2018-12-11T08:27:58.402Z,3.00
2018-12-11T08:30:29.480Z,3.00
2018-12-11T08:33:05.534Z,3.17
2018-12-11T08:35:36.131Z,3.97
2018-12-11T08:38:06.523Z,4.03
2018-12-11T08:40:41.082Z,3.20
2018-12-11T08:46:49.389Z,3.43
2018-12-11T08:49:19.464Z,3.80
2018-12-11T08:51:50.611Z,3.50
2018-12-11T08:54:20.473Z,3.37
2018-12-11T08:56:51.352Z,3.20
2018-12-11T08:59:22.362Z,3.47
2018-12-11T09:01:58.044Z,3.20
2018-12-11T09:04:30.311Z,3.37
2018-12-11T09:07:08.545Z,3.03
2018-12-11T09:09:38.213Z,3.17
2018-12-11T09:12:11.644Z,3.90
2018-12-11T09:14:41.277Z,3.57
2018-12-11T09:17:11.005Z,3.43
2018-12-11T09:19:40.770Z,3.53
2018-12-11T09:22:10.280Z,2.47
2018-12-11T09:24:40.059Z,2.90
2018-12-11T09:27:12.149Z,3.63
2018-12-11T09:29:41.267Z,2.93
2018-12-11T09:32:10.549Z,3.93
2018-12-11T09:34:40.876Z,3.20
2018-12-11T09:37:10.506Z,2.60
2018-12-11T09:39:40.714Z,2.73
2018-12-11T09:42:12.115Z,3.07
2018-12-11T09:44:41.986Z,3.90
2018-12-11T09:47:28.718Z,3.20
2018-12-11T09:50:03.419Z,3.10
2018-12-11T09:52:39.710Z,2.93
2018-12-11T09:55:10.017Z,3.07
2018-12-11T09:57:42.784Z,2.50
2018-12-11T10:00:27.201Z,3.13
2018-12-11T10:03:02.162Z,2.70
2018-12-11T10:05:33.843Z,4.07
2018-12-11T10:12:00.172Z,3.73
2018-12-11T10:14:32.446Z,3.10
2018-12-11T10:17:14.475Z,3.57
2018-12-11T10:19:51.917Z,3.13
2018-12-11T10:22:24.850Z,3.03
2018-12-11T10:24:55.547Z,3.30
2018-12-11T10:27:27.147Z,3.47
2018-12-11T10:30:00.297Z,3.23
2018-12-11T10:32:36.558Z,3.27
2018-12-11T10:35:15.114Z,3.60
2018-12-11T10:37:48.653Z,2.70
2018-12-11T10:40:28.429Z,3.57
2018-12-11T10:43:00.832Z,3.33
2018-12-11T10:45:35.937Z,3.37
2018-12-11T10:48:14.586Z,3.50
2018-12-11T10:50:48.899Z,3.60
2018-12-11T10:53:43.100Z,4.00
2018-12-11T10:56:19.191Z,3.50
2018-12-11T10:59:03.604Z,3.60
2018-12-11T11:01:41.663Z,3.50
2018-12-11T11:04:23.572Z,3.43
2018-12-11T11:07:03.787Z,4.33
2018-12-11T11:09:43.614Z,3.17
2018-12-11T11:12:21.655Z,3.83
2018-12-11T11:14:59.806Z,5.20
2018-12-11T11:17:51.320Z,4.37
2018-12-11T11:20:27.536Z,4.20
2018-12-11T11:23:15.888Z,4.03
2018-12-11T11:25:47.133Z,4.23
2018-12-11T11:28:26.991Z,3.93
2018-12-11T11:31:09.488Z,4.07
2018-12-11T11:33:44.827Z,4.17
2018-12-11T11:36:27.074Z,4.83
2018-12-11T11:39:08.445Z,4.63
2018-12-11T11:41:45.528Z,4.30
2018-12-11T11:44:17.468Z,4.13
2018-12-11T11:46:47.372Z,4.37
2018-12-11T11:49:19.220Z,4.13
2018-12-11T11:51:54.275Z,4.23
2018-12-11T11:54:33.755Z,4.77
2018-12-11T11:57:05.542Z,4.73
2018-12-11T11:59:38.464Z,4.40
2018-12-11T12:02:22.726Z,4.77
2018-12-11T12:05:03.385Z,4.90
2018-12-11T12:07:34.202Z,5.50
2018-12-11T12:10:37.225Z,5.50
2018-12-11T12:13:17.750Z,4.63
2018-12-11T12:16:04.063Z,4.73
2018-12-11T12:18:48.513Z,5.63
2018-12-11T12:21:51.960Z,5.07
2018-12-11T12:24:26.422Z,4.63
2018-12-11T12:27:00.909Z,5.27
2018-12-11T12:29:32.557Z,4.80
2018-12-11T12:32:15.117Z,5.57
2018-12-11T12:34:53.556Z,5.07
2018-12-11T12:37:29.195Z,4.80
2018-12-11T12:40:00.968Z,4.40
2018-12-11T12:42:42.641Z,4.30
2018-12-11T12:45:14.801Z,4.53
2018-12-11T12:47:47.498Z,3.97
2018-12-11T12:50:28.697Z,4.90
2018-12-11T12:53:08.832Z,5.03
2018-12-11T12:55:53.469Z,4.33
2018-12-11T12:58:41.492Z,4.90
2018-12-11T13:01:23.254Z,3.93
2018-12-11T13:04:06.226Z,3.87
2018-12-11T13:06:37.682Z,4.00
2018-12-11T13:09:10.651Z,3.23
2018-12-11T13:11:59.204Z,3.80
2018-12-11T13:14:59.797Z,3.27
2018-12-11T13:17:37.356Z,4.43
2018-12-11T13:20:15.848Z,3.50
2018-12-11T13:25:55.131Z,3.70
2018-12-11T13:28:38.487Z,4.07
2018-12-11T13:31:23.064Z,3.97
2018-12-11T13:37:11.367Z,4.90
2018-12-11T13:39:45.772Z,3.80
2018-12-11T13:42:33.246Z,3.60
2018-12-11T13:45:07.324Z,3.90
2018-12-11T13:47:42.372Z,3.37
2018-12-11T13:50:36.735Z,3.83
2018-12-11T13:53:14.345Z,3.20
2018-12-11T13:55:45.612Z,3.70
2018-12-11T13:58:16.423Z,4.00
2018-12-11T14:00:53.527Z,3.93
2018-12-11T14:03:30.486Z,3.80
2018-12-11T14:06:01.504Z,3.70
2018-12-11T14:08:31.703Z,3.37
2018-12-11T14:11:01.370Z,3.70
2018-12-11T14:13:36.929Z,3.80
2018-12-11T14:16:07.342Z,3.93
2018-12-11T14:18:37.684Z,3.23
2018-12-11T14:24:16.582Z,3.57
2018-12-11T14:26:52.724Z,3.50
2018-12-11T14:29:55.137Z,3.20
2018-12-11T14:32:43.882Z,3.80
2018-12-11T14:35:28.936Z,3.50
2018-12-11T14:38:32.292Z,3.53
2018-12-11T14:41:42.891Z,3.57
2018-12-11T15:01:16.249Z,3.40
2018-12-11T15:04:01.557Z,3.47
2018-12-11T15:10:35.231Z,3.27
2018-12-11T15:19:41.254Z,2.30
2018-12-11T15:22:16.086Z,2.70
2018-12-11T15:24:47.536Z,2.60
2018-12-11T15:27:37.998Z,3.10
2018-12-11T15:30:17.538Z,2.00
2018-12-11T15:32:48.857Z,2.43
2018-12-11T15:35:26.719Z,2.03
2018-12-11T15:37:59.519Z,2.40
2018-12-11T15:40:32.809Z,2.07
2018-12-11T15:43:11.920Z,2.33
2018-12-11T15:45:42.732Z,2.47
2018-12-11T15:48:15.148Z,2.53
2018-12-11T15:50:45.964Z,2.17
2018-12-11T15:53:18.672Z,2.23
2018-12-11T15:55:50.812Z,2.40
2018-12-11T15:58:25.105Z,2.30
2018-12-11T16:00:55.264Z,2.17
2018-12-11T16:03:31.296Z,2.30
2018-12-11T16:06:01.009Z,2.43
2018-12-11T16:08:30.512Z,2.33
2018-12-11T16:11:00.235Z,2.47
2018-12-11T16:13:31.453Z,2.50
2018-12-11T16:16:01.258Z,2.50
2018-12-11T16:18:30.894Z,2.40
2018-12-11T16:21:01.436Z,2.60
2018-12-11T16:23:35.347Z,2.60
2018-12-11T16:26:08.097Z,2.73
2018-12-11T16:28:54.230Z,3.07
2018-12-11T16:31:30.216Z,2.67
2018-12-11T16:34:00.089Z,3.03
2018-12-11T16:36:30.314Z,3.03
2018-12-11T16:39:04.170Z,3.10
2018-12-11T16:41:35.362Z,3.07
2018-12-11T16:44:09.907Z,3.00
2018-12-11T16:46:40.124Z,2.60
2018-12-11T16:49:10.888Z,3.00
2018-12-11T16:51:45.361Z,3.40
2018-12-11T16:54:20.674Z,3.00
2018-12-11T16:56:51.576Z,4.33
2018-12-11T16:59:28.476Z,2.90
2018-12-11T17:02:06.690Z,3.40
2018-12-11T17:04:36.560Z,4.47
2018-12-11T17:07:17.534Z,3.90
2018-12-11T17:09:47.871Z,3.53
2018-12-11T17:12:36.053Z,3.30
2018-12-11T17:15:16.384Z,3.23
2018-12-11T17:17:49.950Z,3.83
2018-12-11T17:20:26.200Z,4.30
2018-12-11T17:23:00.623Z,3.20
2018-12-11T17:25:30.429Z,4.10
2018-12-11T17:28:00.760Z,3.53
2018-12-11T17:30:32.799Z,3.53
2018-12-11T17:33:05.619Z,3.30
2018-12-11T17:35:39.500Z,3.37
2018-12-11T17:38:13.034Z,3.13
2018-12-11T17:40:48.095Z,3.23
2018-12-11T17:43:22.210Z,3.00
2018-12-11T17:45:53.557Z,3.07
2018-12-11T17:48:24.807Z,3.00
2018-12-11T17:50:54.771Z,3.03
2018-12-11T17:53:28.103Z,3.30
2018-12-11T17:56:00.625Z,3.20
2018-12-11T17:58:30.232Z,3.00
2018-12-11T18:01:00.215Z,2.90
2018-12-11T18:03:35.057Z,3.37
2018-12-11T18:06:04.730Z,3.40
2018-12-11T18:08:34.685Z,3.50
2018-12-11T18:11:04.344Z,3.17
2018-12-11T18:13:37.624Z,3.20
2018-12-11T18:16:07.356Z,3.10
2018-12-11T18:18:37.226Z,3.50
2018-12-11T18:21:14.139Z,3.43
2018-12-11T18:23:49.449Z,3.20
2018-12-11T18:26:21.439Z,3.70
2018-12-11T18:28:51.457Z,3.33
2018-12-11T18:31:27.115Z,4.17
2018-12-11T18:34:01.846Z,3.80
2018-12-11T18:36:31.602Z,3.63
2018-12-11T18:39:02.455Z,4.27
2018-12-11T18:41:33.290Z,3.70
2018-12-11T18:44:06.376Z,4.17
2018-12-11T18:46:36.276Z,3.77
2018-12-11T18:49:05.893Z,4.47
2018-12-11T18:51:36.688Z,4.07
2018-12-11T18:54:06.403Z,3.90
2018-12-11T18:56:37.063Z,4.70
2018-12-11T18:59:07.513Z,4.13
2018-12-11T19:01:37.529Z,4.40
2018-12-11T19:04:07.650Z,4.40
2018-12-11T19:06:37.360Z,4.00
2018-12-11T19:09:08.035Z,4.30
2018-12-11T19:11:37.781Z,3.90
2018-12-11T19:14:27.577Z,4.03
2018-12-11T19:17:03.165Z,4.23
2018-12-11T19:19:33.142Z,4.13
2018-12-11T19:22:03.545Z,4.10
2018-12-11T19:24:54.269Z,3.90
2018-12-11T19:27:23.701Z,3.60
2018-12-11T19:29:53.487Z,4.03
2018-12-11T19:32:23.171Z,4.13
2018-12-11T19:35:00.884Z,4.00
2018-12-11T19:37:30.538Z,4.20
2018-12-11T19:40:07.249Z,3.80
2018-12-11T19:42:43.274Z,4.60
2018-12-11T19:45:12.955Z,4.90
2018-12-11T19:47:42.455Z,4.27
2018-12-11T19:50:38.788Z,3.90
2018-12-11T19:53:11.330Z,4.03
2018-12-11T19:55:40.875Z,4.70
2018-12-11T19:58:17.548Z,4.23
2018-12-11T20:00:52.808Z,4.17
2018-12-11T20:03:30.519Z,4.53
2018-12-11T20:06:00.071Z,4.07
2018-12-11T20:08:40.073Z,4.30
2018-12-11T20:11:10.906Z,4.23
2018-12-11T20:13:50.554Z,4.90
2018-12-11T20:16:41.918Z,4.13
2018-12-11T20:19:13.649Z,4.70
2018-12-11T20:21:53.078Z,4.17
2018-12-11T20:24:52.688Z,4.87
2018-12-11T20:28:13.232Z,4.63
2018-12-11T20:31:04.301Z,4.97
2018-12-11T20:33:37.184Z,4.80
2018-12-11T20:36:18.681Z,5.60
2018-12-11T20:38:48.856Z,5.60
2018-12-11T20:41:22.096Z,5.73
2018-12-11T20:44:06.072Z,6.40
2018-12-11T20:46:37.389Z,9.40
2018-12-11T20:49:08.929Z,6.40
2018-12-11T20:51:39.136Z,6.10
2018-12-11T20:54:13.808Z,6.10
2018-12-11T20:56:44.022Z,6.90
2018-12-11T20:59:19.450Z,5.67
2018-12-11T21:01:55.787Z,6.10
2018-12-11T21:04:25.636Z,6.40
2018-12-11T21:06:57.212Z,6.43
2018-12-11T21:12:56.268Z,8.37
2018-12-11T21:15:27.060Z,6.87
2018-12-11T21:17:56.808Z,6.53
2018-12-11T21:20:27.000Z,6.70
2018-12-11T21:23:10.622Z,7.40
2018-12-11T21:26:00.477Z,7.17
2018-12-11T21:28:31.739Z,6.80
2018-12-11T21:31:35.422Z,6.20
2018-12-11T21:34:15.592Z,6.93
2018-12-11T21:36:48.798Z,6.73
2018-12-11T21:39:22.328Z,6.67
2018-12-11T21:42:05.308Z,7.17
2018-12-11T21:44:54.510Z,6.77
2018-12-11T21:47:26.219Z,7.37
2018-12-11T21:50:01.435Z,6.77
2018-12-11T21:52:38.429Z,7.23
2018-12-11T21:55:09.041Z,6.53
2018-12-11T21:57:39.852Z,7.30
2018-12-11T22:00:19.768Z,7.40
2018-12-11T22:02:53.038Z,7.50
2018-12-11T22:05:26.212Z,7.37
2018-12-11T22:07:57.283Z,7.63
2018-12-11T22:10:28.258Z,7.67
2018-12-11T22:13:02.651Z,6.77
2018-12-11T22:15:32.282Z,7.70
2018-12-11T22:18:02.060Z,7.67
2018-12-11T22:20:35.971Z,7.77
2018-12-11T22:23:07.535Z,6.93
2018-12-11T22:25:37.304Z,7.27
2018-12-11T22:28:07.009Z,7.17
2018-12-11T22:30:40.142Z,7.27
2018-12-11T22:33:16.260Z,6.90
2018-12-11T22:35:45.835Z,7.03
2018-12-11T22:38:17.988Z,7.53
2018-12-11T22:40:48.143Z,7.60
2018-12-11T22:43:27.222Z,7.00
2018-12-11T22:45:58.766Z,8.07
2018-12-11T22:48:31.925Z,8.27
2018-12-11T22:51:03.472Z,9.70
2018-12-11T22:53:40.223Z,7.53
2018-12-11T22:56:10.977Z,7.50
2018-12-11T22:58:40.833Z,8.43
2018-12-11T23:01:11.333Z,7.97
2018-12-11T23:03:48.881Z,8.10
2018-12-11T23:06:19.716Z,7.30
2018-12-11T23:08:59.178Z,7.70
2018-12-11T23:11:29.206Z,7.90
2018-12-11T23:14:03.806Z,8.37
2018-12-11T23:16:33.471Z,7.90
2018-12-11T23:19:02.934Z,7.63
2018-12-11T23:21:33.530Z,7.53
2018-12-11T23:24:07.572Z,7.60
2018-12-11T23:26:38.922Z,7.93
2018-12-11T23:29:09.454Z,8.17
2018-12-11T23:31:41.383Z,7.80
2018-12-11T23:34:11.902Z,7.70
2018-12-11T23:36:42.535Z,8.40
2018-12-11T23:39:12.507Z,8.63
2018-12-11T23:41:48.750Z,8.60
2018-12-11T23:44:18.980Z,8.73
2018-12-11T23:46:48.765Z,6.97
2018-12-11T23:49:19.785Z,7.30
2018-12-11T23:51:55.986Z,7.27
2018-12-11T23:54:25.669Z,7.30
2018-12-11T23:56:56.347Z,8.00
2018-12-11T23:59:29.156Z,8.00
